createdAt,value
2022-11-05T00:00:05.077Z,342
2022-11-05T00:00:36.477Z,306
2022-11-05T00:01:08.816Z,308
2022-11-05T00:01:40.667Z,336
2022-11-05T00:02:12.750Z,299
2022-11-05T00:02:35.270Z,325
2022-11-05T00:02:59.063Z,269
2022-11-05T00:03:32.577Z,281
2022-11-05T00:04:04.916Z,284
2022-11-05T00:04:36.464Z,329
2022-11-05T00:05:08.548Z,353
2022-11-05T00:05:40.580Z,335
2022-11-05T00:06:12.595Z,355
2022-11-05T00:06:35.375Z,268
2022-11-05T00:06:57.737Z,276
2022-11-05T00:07:32.615Z,356
2022-11-05T00:08:04.427Z,313
2022-11-05T00:08:36.446Z,353
2022-11-05T00:09:08.828Z,324
2022-11-05T00:09:40.507Z,311
2022-11-05T00:10:12.611Z,328
2022-11-05T00:10:35.264Z,294
2022-11-05T00:10:57.622Z,343
2022-11-05T00:11:32.593Z,352
2022-11-05T00:12:04.857Z,359
2022-11-05T00:12:36.406Z,355
2022-11-05T00:13:09.226Z,331
2022-11-05T00:13:40.454Z,298
2022-11-05T00:14:12.670Z,350
2022-11-05T00:14:35.344Z,356
2022-11-05T00:14:57.742Z,352
2022-11-05T00:15:32.700Z,310
2022-11-05T00:16:04.804Z,319
2022-11-05T00:16:36.546Z,335
2022-11-05T00:17:08.501Z,350
2022-11-05T00:17:40.404Z,355
2022-11-05T00:18:13.016Z,2
2022-11-05T00:18:35.339Z,2
2022-11-05T00:18:57.620Z,4
2022-11-05T00:19:32.679Z,9
2022-11-05T00:20:04.656Z,11
2022-11-05T00:20:36.507Z,13
2022-11-05T00:21:08.506Z,16
2022-11-05T00:21:40.762Z,16
2022-11-05T00:22:12.520Z,17
2022-11-05T00:22:35.209Z,17
2022-11-05T00:22:57.584Z,17
2022-11-05T00:23:32.605Z,24
2022-11-05T00:24:04.419Z,30
2022-11-05T00:24:36.554Z,29
2022-11-05T00:25:08.560Z,30
2022-11-05T00:25:40.665Z,30
2022-11-05T00:26:12.438Z,30
2022-11-05T00:26:35.469Z,30
2022-11-05T00:26:57.896Z,30
2022-11-05T00:27:32.552Z,30
2022-11-05T00:28:04.553Z,37
2022-11-05T00:28:36.450Z,37
2022-11-05T00:29:08.832Z,37
2022-11-05T00:29:40.535Z,36
2022-11-05T00:30:12.896Z,36
2022-11-05T00:30:36.767Z,36
2022-11-05T00:30:59.047Z,36
2022-11-05T00:31:32.576Z,36
2022-11-05T00:32:04.552Z,36
2022-11-05T00:32:36.692Z,33
2022-11-05T00:33:08.800Z,31
2022-11-05T00:33:40.771Z,31
2022-11-05T00:34:12.625Z,24
2022-11-05T00:34:35.556Z,20
2022-11-05T00:34:57.822Z,337
2022-11-05T00:35:32.503Z,274
2022-11-05T00:36:04.364Z,289
2022-11-05T00:36:36.554Z,252
2022-11-05T00:37:08.555Z,264
2022-11-05T00:37:42.370Z,244
2022-11-05T00:38:12.443Z,259
2022-11-05T00:38:35.279Z,268
2022-11-05T00:38:57.546Z,245
2022-11-05T00:39:32.702Z,260
2022-11-05T00:40:04.757Z,271
2022-11-05T00:40:36.860Z,217
2022-11-05T00:41:08.804Z,270
2022-11-05T00:41:40.407Z,238
2022-11-05T00:42:12.594Z,262
2022-11-05T00:42:35.773Z,253
2022-11-05T00:42:57.855Z,285
2022-11-05T00:43:32.589Z,250
2022-11-05T00:44:04.814Z,235
2022-11-05T00:44:36.488Z,255
2022-11-05T00:45:08.579Z,245
2022-11-05T00:45:40.388Z,251
2022-11-05T00:46:12.510Z,260
2022-11-05T00:46:35.343Z,243
2022-11-05T00:46:59.818Z,269
2022-11-05T00:47:32.591Z,261
2022-11-05T00:48:04.476Z,283
2022-11-05T00:48:36.725Z,291
2022-11-05T00:49:08.428Z,269
2022-11-05T00:49:40.475Z,249
2022-11-05T00:50:12.698Z,308
2022-11-05T00:50:35.837Z,243
2022-11-05T00:50:58.365Z,274
2022-11-05T00:51:32.613Z,275
2022-11-05T00:52:04.542Z,264
2022-11-05T00:52:36.605Z,291
2022-11-05T00:53:08.774Z,256
2022-11-05T00:53:40.479Z,238
2022-11-05T00:54:12.436Z,263
2022-11-05T00:54:35.342Z,258
2022-11-05T00:54:57.787Z,253
2022-11-05T00:55:32.557Z,245
2022-11-05T00:56:04.481Z,227
2022-11-05T00:56:36.573Z,250
2022-11-05T00:57:08.569Z,247
2022-11-05T00:57:40.480Z,273
2022-11-05T00:58:12.817Z,258
2022-11-05T00:58:35.575Z,245
2022-11-05T00:58:57.694Z,250
2022-11-05T00:59:32.731Z,247
2022-11-05T01:00:05.040Z,249
2022-11-05T01:00:36.348Z,252
2022-11-05T01:01:08.589Z,236
2022-11-05T01:01:40.603Z,251
2022-11-05T01:02:12.510Z,302
2022-11-05T01:02:35.836Z,321
2022-11-05T01:02:59.338Z,352
2022-11-05T01:03:32.708Z,6
2022-11-05T01:04:04.762Z,10
2022-11-05T01:04:36.414Z,12
2022-11-05T01:05:08.490Z,12
2022-11-05T01:05:40.418Z,12
2022-11-05T01:06:12.747Z,12
2022-11-05T01:06:35.412Z,12
2022-11-05T01:06:57.817Z,12
2022-11-05T01:07:32.703Z,12
2022-11-05T01:08:04.403Z,21
2022-11-05T01:08:36.528Z,68
2022-11-05T01:09:08.416Z,61
2022-11-05T01:09:40.804Z,53
2022-11-05T01:10:12.366Z,54
2022-11-05T01:10:36.796Z,54
2022-11-05T01:10:59.219Z,55
2022-11-05T01:11:32.556Z,59
2022-11-05T01:12:04.725Z,64
2022-11-05T01:12:36.529Z,64
2022-11-05T01:13:12.700Z,62
2022-11-05T01:13:40.514Z,59
2022-11-05T01:14:12.522Z,56
2022-11-05T01:14:35.208Z,56
2022-11-05T01:14:57.532Z,62
2022-11-05T01:15:33.011Z,63
2022-11-05T01:16:04.795Z,62
2022-11-05T01:16:36.856Z,64
2022-11-05T01:17:08.818Z,63
2022-11-05T01:17:40.384Z,57
2022-11-05T01:18:12.789Z,61
2022-11-05T01:18:35.701Z,59
2022-11-05T01:18:58.006Z,59
2022-11-05T01:19:32.849Z,59
2022-11-05T01:20:04.480Z,59
2022-11-05T01:20:38.013Z,56
2022-11-05T01:21:08.374Z,54
2022-11-05T01:21:40.711Z,51
2022-11-05T01:22:12.611Z,47
2022-11-05T01:22:35.249Z,43
2022-11-05T01:22:57.613Z,43
2022-11-05T01:23:32.646Z,45
2022-11-05T01:24:04.400Z,86
2022-11-05T01:24:36.520Z,100
2022-11-05T01:25:08.481Z,101
2022-11-05T01:25:40.642Z,90
2022-11-05T01:26:12.392Z,117
2022-11-05T01:26:35.271Z,128
2022-11-05T01:26:57.594Z,177
2022-11-05T01:27:32.593Z,164
2022-11-05T01:28:04.357Z,161
2022-11-05T01:28:36.724Z,178
2022-11-05T01:29:08.838Z,113
2022-11-05T01:29:40.514Z,161
2022-11-05T01:30:12.450Z,154
2022-11-05T01:30:35.267Z,151
2022-11-05T01:30:57.497Z,164
2022-11-05T01:31:32.660Z,160
2022-11-05T01:32:04.411Z,153
2022-11-05T01:32:36.514Z,87
2022-11-05T01:33:08.716Z,55
2022-11-05T01:33:40.384Z,36
2022-11-05T01:34:12.572Z,265
2022-11-05T01:34:35.461Z,259
2022-11-05T01:34:57.883Z,267
2022-11-05T01:35:32.889Z,270
2022-11-05T01:36:04.817Z,289
2022-11-05T01:36:36.394Z,263
2022-11-05T01:37:08.538Z,265
2022-11-05T01:37:40.715Z,268
2022-11-05T01:38:12.629Z,282
2022-11-05T01:38:35.271Z,281
2022-11-05T01:38:57.659Z,274
2022-11-05T01:39:32.668Z,251
2022-11-05T01:40:04.352Z,273
2022-11-05T01:40:36.816Z,266
2022-11-05T01:41:08.463Z,278
2022-11-05T01:41:40.486Z,282
2022-11-05T01:42:12.371Z,254
2022-11-05T01:42:35.485Z,249
2022-11-05T01:42:57.603Z,248
2022-11-05T01:43:32.569Z,248
2022-11-05T01:44:04.819Z,238
2022-11-05T01:44:36.429Z,234
2022-11-05T01:45:08.666Z,238
2022-11-05T01:45:40.463Z,242
2022-11-05T01:46:12.521Z,285
2022-11-05T01:46:35.269Z,309
2022-11-05T01:46:57.507Z,348
2022-11-05T01:47:32.460Z,341
2022-11-05T01:48:04.385Z,355
2022-11-05T01:48:36.541Z,356
2022-11-05T01:49:08.801Z,355
2022-11-05T01:49:40.559Z,1
2022-11-05T01:50:12.970Z,1
2022-11-05T01:50:35.608Z,1
2022-11-05T01:50:59.205Z,1
2022-11-05T01:51:32.354Z,3
2022-11-05T01:52:04.605Z,6
2022-11-05T01:52:36.788Z,9
2022-11-05T01:53:08.844Z,16
2022-11-05T01:53:40.611Z,32
2022-11-05T01:54:12.895Z,47
2022-11-05T01:54:35.082Z,51
2022-11-05T01:54:57.440Z,57
2022-11-05T01:55:32.605Z,76
2022-11-05T01:56:04.651Z,70
2022-11-05T01:56:36.567Z,67
2022-11-05T01:57:08.351Z,70
2022-11-05T01:57:40.553Z,64
2022-11-05T01:58:12.732Z,61
2022-11-05T01:58:35.567Z,60
2022-11-05T01:58:57.912Z,68
2022-11-05T01:59:32.406Z,66
2022-11-05T02:00:04.565Z,57
2022-11-05T02:00:36.442Z,58
2022-11-05T02:01:08.631Z,38
2022-11-05T02:01:40.446Z,58
2022-11-05T02:02:12.599Z,67
2022-11-05T02:02:35.409Z,68
2022-11-05T02:02:59.166Z,66
2022-11-05T02:03:32.531Z,73
2022-11-05T02:04:05.129Z,69
2022-11-05T02:04:36.446Z,66
2022-11-05T02:05:08.621Z,62
2022-11-05T02:05:40.488Z,60
2022-11-05T02:06:12.603Z,61
2022-11-05T02:06:35.415Z,60
2022-11-05T02:06:57.740Z,59
2022-11-05T02:07:32.591Z,59
2022-11-05T02:08:04.620Z,58
2022-11-05T02:08:36.375Z,58
2022-11-05T02:09:08.558Z,53
2022-11-05T02:09:40.500Z,53
2022-11-05T02:10:12.666Z,53
2022-11-05T02:10:35.062Z,53
2022-11-05T02:10:57.757Z,45
2022-11-05T02:11:32.609Z,34
2022-11-05T02:12:04.552Z,7
2022-11-05T02:12:36.418Z,325
2022-11-05T02:13:08.722Z,324
2022-11-05T02:13:40.476Z,261
2022-11-05T02:14:12.459Z,318
2022-11-05T02:14:35.312Z,312
2022-11-05T02:14:57.681Z,319
2022-11-05T02:15:32.538Z,321
2022-11-05T02:16:04.475Z,352
2022-11-05T02:16:36.452Z,19
2022-11-05T02:17:08.365Z,61
2022-11-05T02:17:40.398Z,72
2022-11-05T02:18:12.503Z,149
2022-11-05T02:18:35.878Z,117
2022-11-05T02:18:58.038Z,72
2022-11-05T02:19:32.539Z,88
2022-11-05T02:20:04.542Z,78
2022-11-05T02:20:36.858Z,41
2022-11-05T02:21:09.018Z,61
2022-11-05T02:21:40.431Z,61
2022-11-05T02:22:12.578Z,58
2022-11-05T02:22:35.580Z,146
2022-11-05T02:22:57.918Z,175
2022-11-05T02:23:32.386Z,133
2022-11-05T02:24:04.365Z,197
2022-11-05T02:24:36.822Z,71
2022-11-05T02:25:08.553Z,72
2022-11-05T02:25:40.374Z,64
2022-11-05T02:26:12.476Z,86
2022-11-05T02:26:35.544Z,82
2022-11-05T02:26:57.862Z,137
2022-11-05T02:27:32.524Z,103
2022-11-05T02:28:04.360Z,84
2022-11-05T02:28:36.703Z,109
2022-11-05T02:29:08.698Z,89
2022-11-05T02:29:40.485Z,93
2022-11-05T02:30:12.757Z,79
2022-11-05T02:30:35.140Z,84
2022-11-05T02:30:57.508Z,72
2022-11-05T02:31:32.571Z,68
2022-11-05T02:32:04.461Z,65
2022-11-05T02:32:36.323Z,71
2022-11-05T02:33:08.970Z,73
2022-11-05T02:33:40.408Z,69
2022-11-05T02:34:12.372Z,84
2022-11-05T02:34:35.123Z,84
2022-11-05T02:34:57.454Z,76
2022-11-05T02:35:32.612Z,104
2022-11-05T02:36:04.610Z,95
2022-11-05T02:36:36.374Z,82
2022-11-05T02:37:08.973Z,89
2022-11-05T02:37:40.506Z,66
2022-11-05T02:38:12.572Z,62
2022-11-05T02:38:35.414Z,61
2022-11-05T02:38:57.675Z,60
2022-11-05T02:39:32.506Z,61
2022-11-05T02:40:04.618Z,60
2022-11-05T02:40:36.375Z,60
2022-11-05T02:41:08.719Z,90
2022-11-05T02:41:40.497Z,87
2022-11-05T02:42:12.519Z,77
2022-11-05T02:42:35.182Z,101
2022-11-05T02:42:57.616Z,131
2022-11-05T02:43:32.478Z,88
2022-11-05T02:44:04.683Z,125
2022-11-05T02:44:36.504Z,92
2022-11-05T02:45:08.608Z,137
2022-11-05T02:45:40.569Z,115
2022-11-05T02:46:12.601Z,119
2022-11-05T02:46:35.828Z,116
2022-11-05T02:46:57.862Z,123
2022-11-05T02:47:32.543Z,105
2022-11-05T02:48:04.583Z,66
2022-11-05T02:48:36.701Z,118
2022-11-05T02:49:08.477Z,167
2022-11-05T02:49:40.439Z,156
2022-11-05T02:50:12.989Z,158
2022-11-05T02:50:36.322Z,157
2022-11-05T02:50:58.836Z,158
2022-11-05T02:51:32.595Z,167
2022-11-05T02:52:04.726Z,164
2022-11-05T02:52:36.365Z,151
2022-11-05T02:53:08.777Z,149
2022-11-05T02:53:40.319Z,130
2022-11-05T02:54:12.454Z,148
2022-11-05T02:54:35.226Z,143
2022-11-05T02:54:57.665Z,153
2022-11-05T02:55:32.590Z,155
2022-11-05T02:56:04.452Z,141
2022-11-05T02:56:36.452Z,131
2022-11-05T02:57:08.586Z,141
2022-11-05T02:57:40.385Z,181
2022-11-05T02:58:12.707Z,161
2022-11-05T02:58:35.229Z,161
2022-11-05T02:58:57.421Z,161
2022-11-05T02:59:33.973Z,155
2022-11-05T03:00:05.756Z,130
2022-11-05T03:00:36.597Z,173
2022-11-05T03:01:08.734Z,137
2022-11-05T03:01:40.491Z,139
2022-11-05T03:02:12.532Z,127
2022-11-05T03:02:35.526Z,117
2022-11-05T03:03:03.234Z,145
2022-11-05T03:03:32.526Z,168
2022-11-05T03:04:04.564Z,161
2022-11-05T03:04:36.986Z,134
2022-11-05T03:05:08.461Z,149
2022-11-05T03:05:40.366Z,165
2022-11-05T03:06:12.374Z,165
2022-11-05T03:06:35.009Z,159
2022-11-05T03:06:57.442Z,162
2022-11-05T03:07:32.603Z,164
2022-11-05T03:08:04.530Z,154
2022-11-05T03:08:36.463Z,145
2022-11-05T03:09:08.487Z,160
2022-11-05T03:09:40.318Z,161
2022-11-05T03:10:12.343Z,159
2022-11-05T03:10:35.182Z,151
2022-11-05T03:10:57.476Z,143
2022-11-05T03:11:32.593Z,164
2022-11-05T03:12:04.552Z,154
2022-11-05T03:12:36.453Z,165
2022-11-05T03:13:08.800Z,161
2022-11-05T03:13:40.745Z,152
2022-11-05T03:14:12.528Z,165
2022-11-05T03:14:35.199Z,123
2022-11-05T03:14:57.603Z,155
2022-11-05T03:15:32.702Z,113
2022-11-05T03:16:04.486Z,176
2022-11-05T03:19:00.826Z,173
2022-11-05T03:19:32.488Z,147
2022-11-05T03:20:04.458Z,160
2022-11-05T03:20:36.494Z,199
2022-11-05T03:21:08.442Z,144
2022-11-05T03:21:40.462Z,138
2022-11-05T03:22:12.501Z,149
2022-11-05T03:22:35.191Z,140
2022-11-05T03:22:57.499Z,170
2022-11-05T03:23:34.443Z,156
2022-11-05T03:24:04.803Z,97
2022-11-05T03:24:36.966Z,81
2022-11-05T03:25:08.377Z,73
2022-11-05T03:25:40.432Z,69
2022-11-05T03:26:12.453Z,70
2022-11-05T03:26:35.214Z,66
2022-11-05T03:26:57.496Z,196
2022-11-05T03:27:32.451Z,149
2022-11-05T03:28:04.526Z,155
2022-11-05T03:28:36.445Z,157
2022-11-05T03:29:08.450Z,146
2022-11-05T03:29:41.340Z,136
2022-11-05T03:30:12.844Z,144
2022-11-05T03:30:35.372Z,145
2022-11-05T03:30:58.060Z,164
2022-11-05T03:31:32.639Z,166
2022-11-05T03:32:04.378Z,117
2022-11-05T03:32:36.740Z,162
2022-11-05T03:33:08.665Z,124
2022-11-05T03:33:41.328Z,137
2022-11-05T03:34:12.436Z,100
2022-11-05T03:34:35.167Z,77
2022-11-05T03:34:57.859Z,79
2022-11-05T03:35:32.818Z,131
2022-11-05T03:36:04.628Z,156
2022-11-05T03:36:36.514Z,116
2022-11-05T03:37:08.509Z,152
2022-11-05T03:37:40.840Z,118
2022-11-05T03:38:12.658Z,120
2022-11-05T03:38:35.530Z,111
2022-11-05T03:38:57.860Z,97
2022-11-05T03:39:32.980Z,91
2022-11-05T03:40:04.553Z,167
2022-11-05T03:40:36.683Z,135
2022-11-05T03:41:08.487Z,138
2022-11-05T03:41:40.556Z,171
2022-11-05T03:42:12.418Z,153
2022-11-05T03:42:35.119Z,162
2022-11-05T03:42:57.575Z,119
2022-11-05T03:43:32.645Z,137
2022-11-05T03:44:04.582Z,146
2022-11-05T03:44:36.291Z,147
2022-11-05T03:45:08.674Z,197
2022-11-05T03:45:40.484Z,107
2022-11-05T03:46:12.588Z,75
2022-11-05T03:46:35.279Z,77
2022-11-05T03:46:57.961Z,52
2022-11-05T03:47:32.662Z,60
2022-11-05T03:48:04.411Z,121
2022-11-05T03:48:36.578Z,146
2022-11-05T03:49:08.290Z,146
2022-11-05T03:49:40.784Z,121
2022-11-05T03:50:12.439Z,136
2022-11-05T03:50:40.959Z,100
2022-11-05T03:50:57.734Z,125
2022-11-05T03:51:32.423Z,80
2022-11-05T03:52:04.882Z,119
2022-11-05T03:52:36.569Z,79
2022-11-05T03:53:08.785Z,60
2022-11-05T03:53:40.468Z,149
2022-11-05T03:54:12.617Z,173
2022-11-05T03:54:35.223Z,155
2022-11-05T03:54:57.656Z,128
2022-11-05T03:55:32.529Z,112
2022-11-05T03:56:04.428Z,82
2022-11-05T03:56:36.477Z,129
2022-11-05T03:57:08.391Z,105
2022-11-05T03:57:40.543Z,51
2022-11-05T03:58:12.495Z,52
2022-11-05T03:58:35.161Z,49
2022-11-05T03:58:59.071Z,8
2022-11-05T03:59:32.443Z,0
2022-11-05T04:00:04.693Z,339
2022-11-05T04:00:36.560Z,68
2022-11-05T04:01:09.162Z,53
2022-11-05T04:01:40.527Z,287
2022-11-05T04:02:12.737Z,323
2022-11-05T04:02:35.416Z,25
2022-11-05T04:02:57.670Z,44
2022-11-05T04:03:32.776Z,65
2022-11-05T04:04:04.692Z,58
2022-11-05T04:04:36.307Z,12
2022-11-05T04:05:08.297Z,303
2022-11-05T04:05:40.470Z,267
2022-11-05T04:06:13.958Z,326
2022-11-05T04:06:35.126Z,310
2022-11-05T04:06:57.587Z,354
2022-11-05T04:07:32.608Z,344
2022-11-05T04:08:06.019Z,17
2022-11-05T04:08:36.427Z,15
2022-11-05T04:09:08.466Z,347
2022-11-05T04:09:40.447Z,298
2022-11-05T04:10:12.684Z,346
2022-11-05T04:10:35.384Z,347
2022-11-05T04:10:57.741Z,337
2022-11-05T04:11:33.055Z,283
2022-11-05T04:12:04.473Z,247
2022-11-05T04:12:36.562Z,251
2022-11-05T04:13:08.648Z,294
2022-11-05T04:13:40.494Z,103
2022-11-05T04:14:12.439Z,79
2022-11-05T04:14:35.573Z,73
2022-11-05T04:14:58.032Z,74
2022-11-05T04:15:32.416Z,54
2022-11-05T04:16:04.588Z,77
2022-11-05T04:16:36.338Z,86
2022-11-05T04:17:08.475Z,55
2022-11-05T04:17:40.394Z,163
2022-11-05T04:18:12.656Z,176
2022-11-05T04:18:35.281Z,160
2022-11-05T04:18:57.640Z,127
2022-11-05T04:19:32.686Z,163
2022-11-05T04:20:04.380Z,161
2022-11-05T04:20:36.504Z,131
2022-11-05T04:21:08.286Z,115
2022-11-05T04:21:41.007Z,146
2022-11-05T04:22:12.422Z,93
2022-11-05T04:22:35.144Z,72
2022-11-05T04:22:57.608Z,47
2022-11-05T04:23:32.984Z,89
2022-11-05T04:24:05.109Z,67
2022-11-05T04:24:36.466Z,65
2022-11-05T04:25:08.750Z,62
2022-11-05T04:25:40.476Z,69
2022-11-05T04:26:13.442Z,69
2022-11-05T04:26:36.134Z,102
2022-11-05T04:26:58.896Z,77
2022-11-05T04:27:33.431Z,59
2022-11-05T04:28:04.639Z,112
2022-11-05T04:28:36.608Z,120
2022-11-05T04:29:08.759Z,69
2022-11-05T04:29:40.574Z,70
2022-11-05T04:30:12.397Z,106
2022-11-05T04:30:35.071Z,100
2022-11-05T04:30:58.094Z,75
2022-11-05T04:31:32.425Z,99
2022-11-05T04:32:04.935Z,108
2022-11-05T04:32:36.494Z,70
2022-11-05T04:33:10.314Z,69
2022-11-05T04:33:40.541Z,80
2022-11-05T04:34:12.535Z,101
2022-11-05T04:34:35.336Z,108
2022-11-05T04:34:58.151Z,72
2022-11-05T04:35:34.016Z,122
2022-11-05T04:36:04.336Z,116
2022-11-05T04:36:36.412Z,133
2022-11-05T04:37:08.314Z,121
2022-11-05T04:37:41.252Z,140
2022-11-05T04:38:14.311Z,145
2022-11-05T04:38:37.278Z,151
2022-11-05T04:39:00.574Z,114
2022-11-05T04:39:33.176Z,140
2022-11-05T04:40:05.094Z,152
2022-11-05T04:40:36.674Z,167
2022-11-05T04:41:09.123Z,157
2022-11-05T04:41:40.549Z,163
2022-11-05T04:42:12.512Z,165
2022-11-05T04:42:35.201Z,165
2022-11-05T04:42:57.446Z,135
2022-11-05T04:43:32.986Z,121
2022-11-05T04:44:04.417Z,100
2022-11-05T04:44:36.810Z,112
2022-11-05T04:45:08.960Z,80
2022-11-05T04:45:41.130Z,58
2022-11-05T04:46:12.472Z,143
2022-11-05T04:46:35.336Z,140
2022-11-05T04:46:58.333Z,140
2022-11-05T04:47:32.632Z,133
2022-11-05T04:48:04.435Z,167
2022-11-05T04:48:36.679Z,173
2022-11-05T04:49:08.809Z,161
2022-11-05T04:49:40.597Z,161
2022-11-05T04:50:12.883Z,136
2022-11-05T04:50:35.482Z,147
2022-11-05T04:50:59.708Z,137
2022-11-05T04:51:33.235Z,155
2022-11-05T04:52:05.183Z,147
2022-11-05T04:52:36.742Z,140
2022-11-05T04:53:09.143Z,166
2022-11-05T04:53:41.539Z,140
2022-11-05T04:54:12.666Z,148
2022-11-05T04:54:35.410Z,130
2022-11-05T04:54:58.540Z,161
2022-11-05T04:55:32.571Z,125
2022-11-05T04:56:04.798Z,144
2022-11-05T04:56:36.684Z,170
2022-11-05T04:57:09.365Z,154
2022-11-05T04:57:40.398Z,129
2022-11-05T04:58:12.982Z,156
2022-11-05T04:58:35.700Z,140
2022-11-05T04:58:58.096Z,148
2022-11-05T04:59:32.515Z,109
2022-11-05T05:00:04.957Z,117
2022-11-05T05:00:37.162Z,73
2022-11-05T05:01:08.745Z,107
2022-11-05T05:01:40.456Z,157
2022-11-05T05:02:12.630Z,161
2022-11-05T05:02:35.127Z,155
2022-11-05T05:02:57.645Z,158
2022-11-05T05:03:32.650Z,124
2022-11-05T05:04:05.023Z,135
2022-11-05T05:04:37.480Z,158
2022-11-05T05:05:09.333Z,141
2022-11-05T05:05:40.469Z,133
2022-11-05T05:06:12.516Z,157
2022-11-05T05:06:35.222Z,151
2022-11-05T05:06:57.893Z,122
2022-11-05T05:07:33.593Z,105
2022-11-05T05:08:04.422Z,163
2022-11-05T05:08:36.376Z,161
2022-11-05T05:09:08.406Z,120
2022-11-05T05:09:40.756Z,119
2022-11-05T05:10:12.468Z,133
2022-11-05T05:10:35.328Z,116
2022-11-05T05:10:58.126Z,126
2022-11-05T05:11:32.877Z,146
2022-11-05T05:12:05.171Z,145
2022-11-05T05:12:36.414Z,161
2022-11-05T05:13:09.081Z,157
2022-11-05T05:13:40.791Z,164
2022-11-05T05:14:13.323Z,164
2022-11-05T05:14:35.937Z,147
2022-11-05T05:14:58.381Z,133
2022-11-05T05:15:32.676Z,149
2022-11-05T05:16:05.040Z,129
2022-11-05T05:16:36.647Z,133
2022-11-05T05:17:08.498Z,129
2022-11-05T05:17:40.452Z,80
2022-11-05T05:18:12.421Z,105
2022-11-05T05:18:35.127Z,112
2022-11-05T05:18:57.570Z,159
2022-11-05T05:19:32.441Z,167
2022-11-05T05:20:04.633Z,120
2022-11-05T05:20:36.285Z,122
2022-11-05T05:21:08.507Z,87
2022-11-05T05:21:40.730Z,185
2022-11-05T05:22:12.763Z,121
2022-11-05T05:22:35.218Z,109
2022-11-05T05:22:57.910Z,105
2022-11-05T05:23:33.157Z,93
2022-11-05T05:24:04.490Z,111
2022-11-05T05:24:37.124Z,127
2022-11-05T05:25:08.513Z,117
2022-11-05T05:25:40.659Z,114
2022-11-05T05:26:12.493Z,83
2022-11-05T05:26:35.314Z,76
2022-11-05T05:26:58.577Z,102
2022-11-05T05:27:32.377Z,101
2022-11-05T05:28:04.728Z,113
2022-11-05T05:28:36.729Z,101
2022-11-05T05:29:08.578Z,97
2022-11-05T05:29:40.492Z,75
2022-11-05T05:30:12.715Z,102
2022-11-05T05:30:35.383Z,91
2022-11-05T05:30:58.868Z,90
2022-11-05T05:31:32.576Z,73
2022-11-05T05:32:04.796Z,68
2022-11-05T05:32:36.875Z,72
2022-11-05T05:33:09.374Z,52
2022-11-05T05:33:42.015Z,51
2022-11-05T05:34:12.586Z,69
2022-11-05T05:34:35.222Z,71
2022-11-05T05:34:57.717Z,74
2022-11-05T05:35:32.640Z,79
2022-11-05T05:36:10.925Z,74
2022-11-05T05:36:36.557Z,89
2022-11-05T05:37:10.401Z,119
2022-11-05T05:37:40.538Z,141
2022-11-05T05:38:12.664Z,106
2022-11-05T05:38:35.757Z,105
2022-11-05T05:38:58.371Z,134
2022-11-05T05:39:33.144Z,74
2022-11-05T05:40:04.440Z,76
2022-11-05T05:40:38.010Z,63
2022-11-05T05:41:08.596Z,109
2022-11-05T05:41:41.135Z,158
2022-11-05T05:42:12.605Z,76
2022-11-05T05:42:40.214Z,63
2022-11-05T05:42:57.879Z,59
2022-11-05T05:43:32.931Z,67
2022-11-05T05:44:05.166Z,59
2022-11-05T05:44:36.648Z,58
2022-11-05T05:45:09.953Z,59
2022-11-05T05:45:40.498Z,71
2022-11-05T05:46:13.450Z,57
2022-11-05T05:46:36.070Z,56
2022-11-05T05:46:58.460Z,55
2022-11-05T05:47:33.099Z,57
2022-11-05T05:48:04.449Z,62
2022-11-05T05:48:36.883Z,69
2022-11-05T05:49:12.316Z,73
2022-11-05T05:49:40.992Z,79
2022-11-05T05:50:12.710Z,71
2022-11-05T05:50:35.406Z,69
2022-11-05T05:50:59.000Z,69
2022-11-05T05:51:32.546Z,67
2022-11-05T05:52:05.132Z,70
2022-11-05T05:52:36.893Z,64
2022-11-05T05:53:08.918Z,73
2022-11-05T05:53:40.377Z,67
2022-11-05T05:54:13.146Z,90
2022-11-05T05:54:41.331Z,71
2022-11-05T05:54:59.034Z,76
2022-11-05T05:55:32.829Z,74
2022-11-05T05:56:04.551Z,70
2022-11-05T05:56:37.027Z,69
2022-11-05T05:57:08.525Z,64
2022-11-05T05:57:40.535Z,59
2022-11-05T05:58:12.368Z,63
2022-11-05T05:58:35.154Z,87
2022-11-05T05:58:57.963Z,72
2022-11-05T05:59:32.485Z,66
2022-11-05T06:00:05.015Z,66
2022-11-05T06:00:36.349Z,84
2022-11-05T06:01:08.570Z,92
2022-11-05T06:01:40.869Z,73
2022-11-05T06:02:12.507Z,70
2022-11-05T06:02:35.287Z,77
2022-11-05T06:02:57.575Z,59
2022-11-05T06:03:33.819Z,72
2022-11-05T06:04:07.135Z,58
2022-11-05T06:04:37.543Z,64
2022-11-05T06:05:08.491Z,70
2022-11-05T06:05:40.521Z,51
2022-11-05T06:06:12.596Z,51
2022-11-05T06:06:35.163Z,52
2022-11-05T06:06:57.544Z,49
2022-11-05T06:07:36.985Z,38
2022-11-05T06:08:04.439Z,41
2022-11-05T06:08:36.534Z,42
2022-11-05T06:09:08.452Z,70
2022-11-05T06:09:40.311Z,64
2022-11-05T06:10:12.464Z,63
2022-11-05T06:10:35.214Z,53
2022-11-05T06:10:57.559Z,65
2022-11-05T06:11:34.177Z,51
2022-11-05T06:12:04.897Z,37
2022-11-05T06:12:36.530Z,16
2022-11-05T06:13:08.761Z,60
2022-11-05T06:13:41.029Z,59
2022-11-05T06:14:13.367Z,96
2022-11-05T06:14:35.984Z,170
2022-11-05T06:14:59.021Z,176
2022-11-05T06:15:35.882Z,135
2022-11-05T06:16:04.727Z,157
2022-11-05T06:16:36.465Z,170
2022-11-05T06:17:08.522Z,148
2022-11-05T06:17:40.458Z,130
2022-11-05T06:18:13.014Z,181
2022-11-05T06:18:35.371Z,165
2022-11-05T06:18:57.840Z,156
2022-11-05T06:19:32.609Z,172
2022-11-05T06:20:04.440Z,120
2022-11-05T06:20:36.409Z,204
2022-11-05T06:21:08.506Z,167
2022-11-05T06:21:40.585Z,182
2022-11-05T06:22:12.590Z,159
2022-11-05T06:22:35.506Z,157
2022-11-05T06:22:58.299Z,159
2022-11-05T06:23:34.697Z,169
2022-11-05T06:24:04.640Z,141
2022-11-05T06:24:36.424Z,160
2022-11-05T06:25:08.562Z,164
2022-11-05T06:25:41.571Z,157
2022-11-05T06:26:12.878Z,136
2022-11-05T06:26:35.437Z,175
2022-11-05T06:26:57.961Z,111
2022-11-05T06:27:35.852Z,141
2022-11-05T06:28:05.100Z,141
2022-11-05T06:28:36.589Z,131
2022-11-05T06:29:08.469Z,142
2022-11-05T06:29:40.736Z,150
2022-11-05T06:30:12.622Z,164
2022-11-05T06:30:35.290Z,169
2022-11-05T06:30:57.462Z,131
2022-11-05T06:31:32.449Z,157
2022-11-05T06:32:04.509Z,112
2022-11-05T06:32:36.497Z,137
2022-11-05T06:33:08.930Z,157
2022-11-05T06:33:40.400Z,144
2022-11-05T06:34:12.624Z,148
2022-11-05T06:34:35.903Z,156
2022-11-05T06:34:58.108Z,178
2022-11-05T06:35:32.893Z,124
2022-11-05T06:36:05.190Z,155
2022-11-05T06:36:36.346Z,166
2022-11-05T06:37:09.033Z,125
2022-11-05T06:37:40.494Z,170
2022-11-05T06:38:12.572Z,144
2022-11-05T06:38:35.532Z,122
2022-11-05T06:38:58.395Z,135
2022-11-05T06:39:32.470Z,122
2022-11-05T06:40:04.516Z,134
2022-11-05T06:40:36.494Z,155
2022-11-05T06:41:10.527Z,93
2022-11-05T06:41:45.698Z,136
2022-11-05T06:42:18.237Z,91
2022-11-05T06:42:40.319Z,62
2022-11-05T06:43:16.843Z,345
2022-11-05T06:43:39.268Z,341
2022-11-05T06:44:02.310Z,334
2022-11-05T06:44:36.679Z,311
2022-11-05T06:45:08.923Z,48
2022-11-05T06:45:40.796Z,104
2022-11-05T06:46:12.517Z,65
2022-11-05T06:46:35.396Z,54
2022-11-05T06:46:57.532Z,51
2022-11-05T06:47:33.160Z,45
2022-11-05T06:48:04.663Z,71
2022-11-05T06:48:36.568Z,49
2022-11-05T06:49:08.779Z,45
2022-11-05T06:49:41.101Z,127
2022-11-05T06:50:14.525Z,61
2022-11-05T06:50:36.044Z,142
2022-11-05T06:51:00.436Z,146
2022-11-05T06:51:32.550Z,159
2022-11-05T06:52:04.684Z,145
2022-11-05T06:52:40.888Z,47
2022-11-05T06:53:09.958Z,87
2022-11-05T06:53:40.468Z,76
2022-11-05T06:54:12.503Z,142
2022-11-05T06:54:35.265Z,137
2022-11-05T06:54:57.563Z,45
2022-11-05T06:55:34.787Z,102
2022-11-05T06:56:08.670Z,89
2022-11-05T06:56:37.251Z,124
2022-11-05T06:57:08.478Z,117
2022-11-05T06:57:40.884Z,187
2022-11-05T06:58:12.477Z,170
2022-11-05T06:58:35.268Z,141
2022-11-05T06:58:57.708Z,146
2022-11-05T06:59:32.758Z,125
2022-11-05T07:00:08.044Z,154
2022-11-05T07:00:36.887Z,127
2022-11-05T07:01:08.695Z,121
2022-11-05T07:01:40.640Z,141